sensor_id;sensor_type;location;lat;lon;timestamp;temperature;humidity
44731;DHT22;30458;47.448;19.032;2023-02-27T00:06:23;4.70;85.00
44731;DHT22;30458;47.448;19.032;2023-02-27T00:16:23;4.60;85.90
44731;DHT22;30458;47.448;19.032;2023-02-27T00:26:29;4.60;86.30
44731;DHT22;30458;47.448;19.032;2023-02-27T00:36:30;4.30;86.60
44731;DHT22;30458;47.448;19.032;2023-02-27T00:46:31;4.40;86.10
44731;DHT22;30458;47.448;19.032;2023-02-27T00:56:32;4.40;85.30
44731;DHT22;30458;47.448;19.032;2023-02-27T01:06:36;4.50;86.30
44731;DHT22;30458;47.448;19.032;2023-02-27T01:16:37;4.50;87.00
44731;DHT22;30458;47.448;19.032;2023-02-27T01:26:37;4.30;87.20
44731;DHT22;30458;47.448;19.032;2023-02-27T01:36:38;4.10;87.60
44731;DHT22;30458;47.448;19.032;2023-02-27T01:46:40;3.90;87.60
44731;DHT22;30458;47.448;19.032;2023-02-27T01:56:40;4.10;87.70
44731;DHT22;30458;47.448;19.032;2023-02-27T02:06:47;3.90;87.20
44731;DHT22;30458;47.448;19.032;2023-02-27T03:08:19;4.20;85.40
44731;DHT22;30458;47.448;19.032;2023-02-27T03:18:29;4.00;85.90
44731;DHT22;30458;47.448;19.032;2023-02-27T03:28:36;3.90;85.10
44731;DHT22;30458;47.448;19.032;2023-02-27T03:38:41;3.90;85.60
44731;DHT22;30458;47.448;19.032;2023-02-27T03:48:44;4.00;84.50
44731;DHT22;30458;47.448;19.032;2023-02-27T03:58:46;4.00;84.30
44731;DHT22;30458;47.448;19.032;2023-02-27T04:09:02;4.10;83.80
44731;DHT22;30458;47.448;19.032;2023-02-27T04:39:23;4.40;82.70
44731;DHT22;30458;47.448;19.032;2023-02-27T04:49:34;4.30;82.20
44731;DHT22;30458;47.448;19.032;2023-02-27T04:59:39;4.30;81.30
44731;DHT22;30458;47.448;19.032;2023-02-27T05:09:59;4.20;81.60
44731;DHT22;30458;47.448;19.032;2023-02-27T05:20:06;4.00;81.80
44731;DHT22;30458;47.448;19.032;2023-02-27T05:30:16;4.00;82.30
44731;DHT22;30458;47.448;19.032;2023-02-27T05:40:24;4.00;81.70
44731;DHT22;30458;47.448;19.032;2023-02-27T05:50:29;4.00;81.20
44731;DHT22;30458;47.448;19.032;2023-02-27T06:00:47;4.00;80.00
44731;DHT22;30458;47.448;19.032;2023-02-27T06:10:49;4.10;80.70
44731;DHT22;30458;47.448;19.032;2023-02-27T06:20:53;4.10;80.20
44731;DHT22;30458;47.448;19.032;2023-02-27T06:30:54;4.10;80.30
44731;DHT22;30458;47.448;19.032;2023-02-27T06:40:56;4.10;80.00
44731;DHT22;30458;47.448;19.032;2023-02-27T06:50:59;4.30;79.40
44731;DHT22;30458;47.448;19.032;2023-02-27T07:01:00;4.20;79.90
44731;DHT22;30458;47.448;19.032;2023-02-27T07:11:04;4.70;78.70
44731;DHT22;30458;47.448;19.032;2023-02-27T07:21:07;5.20;77.30
44731;DHT22;30458;47.448;19.032;2023-02-27T07:31:11;5.30;76.30
44731;DHT22;30458;47.448;19.032;2023-02-27T07:41:11;5.70;76.10
44731;DHT22;30458;47.448;19.032;2023-02-27T07:51:12;6.70;73.80
44731;DHT22;30458;47.448;19.032;2023-02-27T08:01:13;8.00;69.80
44731;DHT22;30458;47.448;19.032;2023-02-27T08:11:14;9.00;68.00
44731;DHT22;30458;47.448;19.032;2023-02-27T08:21:15;8.00;69.10
44731;DHT22;30458;47.448;19.032;2023-02-27T08:31:18;6.90;71.10
44731;DHT22;30458;47.448;19.032;2023-02-27T08:41:22;6.30;72.40
44731;DHT22;30458;47.448;19.032;2023-02-27T08:51:22;6.00;72.60
44731;DHT22;30458;47.448;19.032;2023-02-27T09:01:23;6.10;72.90
44731;DHT22;30458;47.448;19.032;2023-02-27T09:11:27;6.40;72.20
44731;DHT22;30458;47.448;19.032;2023-02-27T09:21:28;6.30;72.30
44731;DHT22;30458;47.448;19.032;2023-02-27T09:31:29;6.40;73.10
44731;DHT22;30458;47.448;19.032;2023-02-27T09:41:41;6.30;72.70
44731;DHT22;30458;47.448;19.032;2023-02-27T09:51:50;6.50;73.00
44731;DHT22;30458;47.448;19.032;2023-02-27T10:22:37;6.60;72.60
44731;DHT22;30458;47.448;19.032;2023-02-27T10:32:39;7.00;72.00
44731;DHT22;30458;47.448;19.032;2023-02-27T10:42:42;7.00;70.90
44731;DHT22;30458;47.448;19.032;2023-02-27T10:52:49;7.10;70.80
44731;DHT22;30458;47.448;19.032;2023-02-27T11:02:53;7.40;71.30
44731;DHT22;30458;47.448;19.032;2023-02-27T11:23:13;7.40;69.80
44731;DHT22;30458;47.448;19.032;2023-02-27T11:33:18;7.40;70.00
44731;DHT22;30458;47.448;19.032;2023-02-27T11:43:26;7.20;69.80
44731;DHT22;30458;47.448;19.032;2023-02-27T12:04:16;7.60;70.80
44731;DHT22;30458;47.448;19.032;2023-02-27T12:24:45;7.60;70.20
44731;DHT22;30458;47.448;19.032;2023-02-27T12:34:53;7.30;70.20
44731;DHT22;30458;47.448;19.032;2023-02-27T12:55:26;7.50;70.00
44731;DHT22;30458;47.448;19.032;2023-02-27T13:15:40;7.60;69.70
44731;DHT22;30458;47.448;19.032;2023-02-27T13:25:45;7.50;69.00
44731;DHT22;30458;47.448;19.032;2023-02-27T13:35:48;7.50;69.50
44731;DHT22;30458;47.448;19.032;2023-02-27T13:45:56;7.50;70.50
44731;DHT22;30458;47.448;19.032;2023-02-27T13:56:22;7.60;70.50
44731;DHT22;30458;47.448;19.032;2023-02-27T14:06:27;7.70;70.50
44731;DHT22;30458;47.448;19.032;2023-02-27T14:26:38;7.60;69.40
44731;DHT22;30458;47.448;19.032;2023-02-27T14:36:58;7.60;71.10
44731;DHT22;30458;47.448;19.032;2023-02-27T14:47:02;7.70;70.90
44731;DHT22;30458;47.448;19.032;2023-02-27T14:57:05;7.70;70.80
44731;DHT22;30458;47.448;19.032;2023-02-27T15:07:17;7.80;71.10
44731;DHT22;30458;47.448;19.032;2023-02-27T15:17:24;7.70;71.20
44731;DHT22;30458;47.448;19.032;2023-02-27T15:27:26;7.70;70.60
44731;DHT22;30458;47.448;19.032;2023-02-27T15:37:30;7.40;71.80
44731;DHT22;30458;47.448;19.032;2023-02-27T15:47:34;7.30;71.20
44731;DHT22;30458;47.448;19.032;2023-02-27T15:57:35;7.30;71.20
44731;DHT22;30458;47.448;19.032;2023-02-27T16:07:40;7.20;70.70
44731;DHT22;30458;47.448;19.032;2023-02-27T16:18:25;7.10;71.30
44731;DHT22;30458;47.448;19.032;2023-02-27T16:28:26;7.10;71.70
44731;DHT22;30458;47.448;19.032;2023-02-27T16:38:29;7.00;71.70
44731;DHT22;30458;47.448;19.032;2023-02-27T16:48:35;6.90;72.10
44731;DHT22;30458;47.448;19.032;2023-02-27T16:58:36;6.70;72.80
44731;DHT22;30458;47.448;19.032;2023-02-27T17:08:41;6.60;73.00
44731;DHT22;30458;47.448;19.032;2023-02-27T17:18:42;6.60;73.10
44731;DHT22;30458;47.448;19.032;2023-02-27T17:28:45;6.60;73.40
44731;DHT22;30458;47.448;19.032;2023-02-27T17:38:46;6.60;73.70
44731;DHT22;30458;47.448;19.032;2023-02-27T17:48:52;6.50;73.50
44731;DHT22;30458;47.448;19.032;2023-02-27T17:58:55;6.50;73.40
44731;DHT22;30458;47.448;19.032;2023-02-27T18:08:57;6.20;73.90
44731;DHT22;30458;47.448;19.032;2023-02-27T18:19:01;6.00;74.50
44731;DHT22;30458;47.448;19.032;2023-02-27T18:29:05;5.70;75.00
44731;DHT22;30458;47.448;19.032;2023-02-27T18:39:07;6.00;75.60
44731;DHT22;30458;47.448;19.032;2023-02-27T18:49:08;5.60;76.40
44731;DHT22;30458;47.448;19.032;2023-02-27T18:59:09;5.20;77.60
44731;DHT22;30458;47.448;19.032;2023-02-27T19:09:13;4.90;78.80
44731;DHT22;30458;47.448;19.032;2023-02-27T19:19:16;4.60;79.40
44731;DHT22;30458;47.448;19.032;2023-02-27T19:29:17;4.30;79.60
44731;DHT22;30458;47.448;19.032;2023-02-27T19:39:21;4.20;79.80
44731;DHT22;30458;47.448;19.032;2023-02-27T19:49:22;4.10;79.70
44731;DHT22;30458;47.448;19.032;2023-02-27T19:59:25;4.30;78.80
44731;DHT22;30458;47.448;19.032;2023-02-27T20:09:26;4.30;78.90
44731;DHT22;30458;47.448;19.032;2023-02-27T20:19:27;4.50;78.60
44731;DHT22;30458;47.448;19.032;2023-02-27T20:29:27;4.50;78.00
44731;DHT22;30458;47.448;19.032;2023-02-27T20:39:31;4.60;77.90
44731;DHT22;30458;47.448;19.032;2023-02-27T20:49:31;4.50;77.90
44731;DHT22;30458;47.448;19.032;2023-02-27T20:59:32;4.40;77.90
44731;DHT22;30458;47.448;19.032;2023-02-27T21:09:33;4.40;78.00
44731;DHT22;30458;47.448;19.032;2023-02-27T21:19:37;4.40;78.10
44731;DHT22;30458;47.448;19.032;2023-02-27T21:29:41;4.20;78.30
44731;DHT22;30458;47.448;19.032;2023-02-27T21:39:49;4.30;78.50
44731;DHT22;30458;47.448;19.032;2023-02-27T21:49:54;4.30;78.40
44731;DHT22;30458;47.448;19.032;2023-02-27T21:59:55;4.30;78.50
44731;DHT22;30458;47.448;19.032;2023-02-27T22:09:56;4.30;78.20
44731;DHT22;30458;47.448;19.032;2023-02-27T22:19:57;4.40;78.30
44731;DHT22;30458;47.448;19.032;2023-02-27T22:30:03;4.50;78.10
44731;DHT22;30458;47.448;19.032;2023-02-27T22:40:04;4.60;77.80
44731;DHT22;30458;47.448;19.032;2023-02-27T22:50:11;4.60;77.80
44731;DHT22;30458;47.448;19.032;2023-02-27T23:00:12;4.70;77.70
44731;DHT22;30458;47.448;19.032;2023-02-27T23:10:18;4.70;77.30
44731;DHT22;30458;47.448;19.032;2023-02-27T23:20:19;4.70;77.60
44731;DHT22;30458;47.448;19.032;2023-02-27T23:30:20;4.70;78.00
44731;DHT22;30458;47.448;19.032;2023-02-27T23:40:22;4.70;78.30
44731;DHT22;30458;47.448;19.032;2023-02-27T23:50:29;4.70;78.60
